createdAt,value
2018-12-23T00:01:56.735Z,9.50
2018-12-23T00:04:29.070Z,9.50
2018-12-23T00:07:01.391Z,9.50
2018-12-23T00:09:34.043Z,9.40
2018-12-23T00:12:06.371Z,9.30
2018-12-23T00:14:38.704Z,9.30
2018-12-23T00:17:11.019Z,9.20
2018-12-23T00:19:43.382Z,9.10
2018-12-23T00:22:15.707Z,9.00
2018-12-23T00:24:48.038Z,9.00
2018-12-23T00:27:20.367Z,9.00
2018-12-23T00:29:52.711Z,9.00
2018-12-23T00:32:25.026Z,9.10
2018-12-23T00:34:57.351Z,9.10
2018-12-23T00:37:29.670Z,9.10
2018-12-23T00:40:02.038Z,9.20
2018-12-23T00:42:34.347Z,9.20
2018-12-23T00:45:06.882Z,9.30
2018-12-23T00:47:39.237Z,9.30
2018-12-23T00:50:11.586Z,9.30
2018-12-23T00:52:43.914Z,9.30
2018-12-23T00:55:16.265Z,9.30
2018-12-23T00:57:48.579Z,9.20
2018-12-23T01:00:20.926Z,9.20
2018-12-23T01:02:53.241Z,9.10
2018-12-23T01:05:28.881Z,9.10
2018-12-23T01:07:59.868Z,9.10
2018-12-23T01:10:32.199Z,9.10
2018-12-23T01:13:04.537Z,9.00
2018-12-23T01:15:36.879Z,9.10
2018-12-23T01:18:09.234Z,9.10
2018-12-23T01:20:41.562Z,9.00
2018-12-23T01:23:14.282Z,9.00
2018-12-23T01:25:46.621Z,9.00
2018-12-23T01:28:18.944Z,9.00
2018-12-23T01:30:51.264Z,9.00
2018-12-23T01:33:23.583Z,9.00
2018-12-23T01:35:55.916Z,9.00
2018-12-23T01:38:28.277Z,8.90
2018-12-23T01:41:00.883Z,8.90
2018-12-23T01:43:33.286Z,8.90
2018-12-23T01:46:05.647Z,8.90
2018-12-23T01:48:38.383Z,8.90
2018-12-23T01:51:10.688Z,8.90
2018-12-23T01:53:42.998Z,8.90
2018-12-23T01:56:15.324Z,8.90
2018-12-23T01:58:47.638Z,8.80
2018-12-23T02:01:19.958Z,8.90
2018-12-23T02:04:34.832Z,8.90
2018-12-23T02:07:18.084Z,8.90
2018-12-23T02:10:10.291Z,8.80
2018-12-23T02:13:02.454Z,8.80
2018-12-23T02:15:54.895Z,8.80
2018-12-23T02:18:40.075Z,8.80
2018-12-23T02:21:25.112Z,8.80
2018-12-23T02:24:09.880Z,8.80
2018-12-23T02:26:54.920Z,8.80
2018-12-23T02:29:39.704Z,8.80
2018-12-23T02:32:24.256Z,8.80
2018-12-23T02:35:09.239Z,8.80
2018-12-23T02:37:53.931Z,8.80
2018-12-23T02:40:39.033Z,8.80
2018-12-23T02:43:23.959Z,8.80
2018-12-23T02:46:09.292Z,8.80
2018-12-23T02:48:54.283Z,8.80
2018-12-23T02:51:38.900Z,8.80
2018-12-23T02:54:23.643Z,8.80
2018-12-23T02:57:08.492Z,8.80
2018-12-23T02:59:53.008Z,8.80
2018-12-23T03:02:37.822Z,8.80
2018-12-23T03:05:22.789Z,8.80
2018-12-23T03:08:07.416Z,8.80
2018-12-23T03:10:52.139Z,8.80
2018-12-23T03:13:37.646Z,8.80
2018-12-23T03:16:22.293Z,8.80
2018-12-23T03:19:07.757Z,8.80
2018-12-23T03:21:52.306Z,8.80
2018-12-23T03:24:37.366Z,8.80
2018-12-23T03:27:22.540Z,8.80
2018-12-23T03:30:07.475Z,8.90
2018-12-23T03:32:52.413Z,8.90
2018-12-23T03:35:37.372Z,8.80
2018-12-23T03:38:21.876Z,8.90
2018-12-23T03:41:06.528Z,8.90
2018-12-23T03:43:51.294Z,8.90
2018-12-23T03:46:35.873Z,8.90
2018-12-23T03:49:21.237Z,8.90
2018-12-23T03:51:54.240Z,8.90
2018-12-23T03:54:46.431Z,8.90
2018-12-23T03:57:38.621Z,8.90
2018-12-23T04:00:30.789Z,8.90
2018-12-23T04:03:23.001Z,8.90
2018-12-23T04:06:24.251Z,8.90
2018-12-23T04:09:09.091Z,8.90
2018-12-23T04:12:01.547Z,8.90
2018-12-23T04:14:53.747Z,8.90
2018-12-23T04:17:45.966Z,8.90
2018-12-23T04:20:30.753Z,8.90
2018-12-23T04:23:15.728Z,8.90
2018-12-23T04:26:00.345Z,8.90
2018-12-23T04:28:45.459Z,8.90
2018-12-23T04:31:30.006Z,8.90
2018-12-23T04:34:14.594Z,9.00
2018-12-23T04:36:59.400Z,9.00
2018-12-23T04:39:42.628Z,9.00
2018-12-23T04:42:34.817Z,8.90
2018-12-23T04:45:26.986Z,8.90
2018-12-23T04:48:19.185Z,8.90
2018-12-23T04:51:11.360Z,8.90
2018-12-23T04:54:03.994Z,8.90
2018-12-23T04:56:56.164Z,8.80
2018-12-23T04:59:48.360Z,8.80
2018-12-23T05:02:40.536Z,8.80
2018-12-23T05:05:32.719Z,8.70
2018-12-23T05:08:24.919Z,8.70
2018-12-23T05:11:17.106Z,8.60
2018-12-23T05:14:09.296Z,8.60
2018-12-23T05:17:01.459Z,8.60
2018-12-23T05:19:46.690Z,8.60
2018-12-23T05:22:31.420Z,8.50
2018-12-23T05:25:16.036Z,8.50
2018-12-23T05:28:00.886Z,8.50
2018-12-23T05:30:45.789Z,8.50
2018-12-23T05:33:30.595Z,8.50
2018-12-23T05:36:15.340Z,8.50
2018-12-23T05:39:00.065Z,8.50
2018-12-23T05:41:44.643Z,8.60
2018-12-23T05:44:29.690Z,8.60
2018-12-23T05:47:14.340Z,8.60
2018-12-23T05:49:59.493Z,8.70
2018-12-23T05:52:44.055Z,8.70
2018-12-23T05:55:28.860Z,8.70
2018-12-23T05:58:13.480Z,8.70
2018-12-23T06:00:58.266Z,8.70
2018-12-23T06:03:42.803Z,8.70
2018-12-23T06:06:27.460Z,8.70
2018-12-23T06:09:12.040Z,8.70
2018-12-23T06:11:56.728Z,8.70
2018-12-23T06:14:40.008Z,8.80
2018-12-23T06:17:32.201Z,8.70
2018-12-23T06:20:16.788Z,8.70
2018-12-23T06:23:01.685Z,8.70
2018-12-23T06:25:44.961Z,8.70
2018-12-23T06:28:37.140Z,8.70
2018-12-23T06:31:29.335Z,8.70
2018-12-23T06:34:21.511Z,8.70
2018-12-23T06:37:13.717Z,8.80
2018-12-23T06:40:05.914Z,8.80
2018-12-23T06:42:58.088Z,8.70
2018-12-23T06:45:50.264Z,8.70
2018-12-23T06:48:42.452Z,8.70
2018-12-23T06:51:34.912Z,8.70
2018-12-23T06:54:27.124Z,8.70
2018-12-23T06:57:19.327Z,8.70
2018-12-23T07:00:11.504Z,8.70
2018-12-23T07:03:03.697Z,8.70
2018-12-23T07:05:55.872Z,8.70
2018-12-23T07:08:48.064Z,8.70
2018-12-23T07:11:40.242Z,8.70
2018-12-23T07:14:32.431Z,8.70
2018-12-23T07:17:24.607Z,8.60
2018-12-23T07:20:09.341Z,8.60
2018-12-23T07:22:54.212Z,8.60
2018-12-23T07:25:38.812Z,8.60
2018-12-23T07:28:24.134Z,8.60
2018-12-23T07:31:09.187Z,8.60
2018-12-23T07:33:54.297Z,8.70
2018-12-23T07:36:39.261Z,8.70
2018-12-23T07:39:23.736Z,8.70
2018-12-23T07:42:08.452Z,8.70
2018-12-23T07:44:53.047Z,8.80
2018-12-23T07:47:37.683Z,8.80
2018-12-23T07:50:22.517Z,8.80
2018-12-23T07:53:07.240Z,8.80
2018-12-23T07:55:51.760Z,8.80
2018-12-23T07:58:36.315Z,8.80
2018-12-23T08:01:20.955Z,8.90
2018-12-23T08:04:05.668Z,8.90
2018-12-23T08:06:50.755Z,8.90
2018-12-23T08:09:35.739Z,8.90
2018-12-23T08:12:20.556Z,8.90
2018-12-23T08:15:05.128Z,9.00
2018-12-23T08:17:50.162Z,9.00
2018-12-23T08:20:34.814Z,9.00
2018-12-23T08:23:20.905Z,9.00
2018-12-23T08:26:05.708Z,9.10
2018-12-23T08:28:50.322Z,9.10
2018-12-23T08:31:35.426Z,9.20
2018-12-23T08:34:20.282Z,9.30
2018-12-23T08:37:04.953Z,9.30
2018-12-23T08:39:50.092Z,9.40
2018-12-23T08:42:34.624Z,9.50
2018-12-23T08:45:19.354Z,9.50
2018-12-23T08:48:04.154Z,9.50
2018-12-23T08:50:48.940Z,9.60
2018-12-23T08:53:33.956Z,9.70
2018-12-23T08:56:18.545Z,9.70
2018-12-23T08:59:03.480Z,9.80
2018-12-23T09:01:48.865Z,9.80
2018-12-23T09:04:33.822Z,9.90
2018-12-23T09:07:19.531Z,9.90
2018-12-23T09:10:03.995Z,10.00
2018-12-23T09:12:49.219Z,10.00
2018-12-23T09:15:34.039Z,10.00
2018-12-23T09:18:19.685Z,10.10
2018-12-23T09:21:05.124Z,10.10
2018-12-23T09:23:50.196Z,10.10
2018-12-23T09:26:35.237Z,10.20
2018-12-23T09:29:20.205Z,10.20
2018-12-23T09:32:05.203Z,10.20
2018-12-23T09:34:49.771Z,10.30
2018-12-23T09:37:34.386Z,10.30
2018-12-23T09:40:19.344Z,10.30
2018-12-23T09:43:04.172Z,10.30
2018-12-23T09:45:48.836Z,10.30
2018-12-23T09:48:33.900Z,10.30
2018-12-23T09:51:19.026Z,10.40
2018-12-23T09:54:03.699Z,10.40
2018-12-23T09:56:48.676Z,10.40
2018-12-23T09:59:33.413Z,10.50
2018-12-23T10:02:18.816Z,10.50
2018-12-23T10:05:03.867Z,10.50
2018-12-23T10:07:48.445Z,10.60
2018-12-23T10:10:33.092Z,10.60
2018-12-23T10:13:17.981Z,10.60
2018-12-23T10:16:02.916Z,10.60
2018-12-23T10:18:47.371Z,10.60
2018-12-23T10:21:32.384Z,10.60
2018-12-23T10:24:17.094Z,10.60
2018-12-23T10:27:01.858Z,10.50
2018-12-23T10:29:46.642Z,10.50
2018-12-23T10:32:31.216Z,10.50
2018-12-23T10:35:16.271Z,10.40
2018-12-23T10:38:00.957Z,10.40
2018-12-23T10:40:46.140Z,10.40
2018-12-23T10:43:30.787Z,10.40
2018-12-23T10:46:15.892Z,10.30
2018-12-23T10:49:00.528Z,10.40
2018-12-23T10:51:45.381Z,10.40
2018-12-23T10:54:30.438Z,10.40
2018-12-23T10:57:15.253Z,10.40
2018-12-23T11:00:00.945Z,10.40
2018-12-23T11:02:46.320Z,10.40
2018-12-23T11:05:31.330Z,10.40
2018-12-23T11:08:16.169Z,10.30
2018-12-23T11:11:01.091Z,10.30
2018-12-23T11:13:46.152Z,10.30
2018-12-23T11:16:31.388Z,10.30
2018-12-23T11:19:16.186Z,10.20
2018-12-23T11:22:01.400Z,10.20
2018-12-23T11:24:44.677Z,10.10
2018-12-23T11:27:36.847Z,10.10
2018-12-23T11:30:29.064Z,10.10
2018-12-23T11:33:21.260Z,10.00
2018-12-23T11:36:13.434Z,10.00
2018-12-23T11:39:06.437Z,10.00
2018-12-23T11:41:58.620Z,10.00
2018-12-23T11:44:50.807Z,10.00
2018-12-23T11:47:42.988Z,10.00
2018-12-23T11:50:35.168Z,10.00
2018-12-23T11:53:27.635Z,10.00
2018-12-23T11:56:19.817Z,10.00
2018-12-23T11:59:12.027Z,10.00
2018-12-23T12:02:04.683Z,10.10
2018-12-23T12:04:57.290Z,10.10
2018-12-23T12:07:49.467Z,10.10
2018-12-23T12:10:41.681Z,10.10
2018-12-23T12:13:33.864Z,10.10
2018-12-23T12:16:26.054Z,10.10
2018-12-23T12:19:18.264Z,10.10
2018-12-23T12:22:10.735Z,10.10
2018-12-23T12:25:02.946Z,10.20
2018-12-23T12:27:55.408Z,10.20
2018-12-23T12:30:47.606Z,10.20
2018-12-23T12:33:39.784Z,10.20
2018-12-23T12:36:31.981Z,10.10
2018-12-23T12:39:24.163Z,10.00
2018-12-23T12:42:16.368Z,10.00
2018-12-23T12:45:09.273Z,9.90
2018-12-23T12:48:01.447Z,9.90
2018-12-23T12:50:53.625Z,9.90
2018-12-23T12:53:46.083Z,9.90
2018-12-23T12:56:38.278Z,9.80
2018-12-23T12:59:30.455Z,9.80
2018-12-23T13:02:22.648Z,9.80
2018-12-23T13:05:14.833Z,9.80
2018-12-23T13:08:07.019Z,9.80
2018-12-23T13:10:59.231Z,9.70
2018-12-23T13:13:51.415Z,9.60
2018-12-23T13:16:43.615Z,9.60
2018-12-23T13:19:35.819Z,9.60
2018-12-23T13:22:28.012Z,9.60
2018-12-23T13:25:20.547Z,9.60
2018-12-23T13:28:12.737Z,9.60
2018-12-23T13:31:04.923Z,9.60
2018-12-23T13:33:57.120Z,9.60
2018-12-23T13:36:49.304Z,9.60
2018-12-23T13:39:41.504Z,9.50
2018-12-23T13:42:52.882Z,9.50
2018-12-23T13:46:04.252Z,9.50
2018-12-23T13:49:15.631Z,9.50
2018-12-23T13:52:27.025Z,9.50
2018-12-23T13:55:38.414Z,9.50
2018-12-23T13:58:49.785Z,9.40
2018-12-23T14:02:01.150Z,9.40
2018-12-23T14:05:12.564Z,9.40
2018-12-23T14:08:23.949Z,9.40
2018-12-23T14:11:35.337Z,9.40
2018-12-23T14:14:27.802Z,9.40
2018-12-23T14:17:19.987Z,9.30
2018-12-23T14:20:05.020Z,9.30
2018-12-23T14:22:50.017Z,9.30
2018-12-23T14:25:34.804Z,9.20
2018-12-23T14:28:18.129Z,9.20
2018-12-23T14:31:10.323Z,9.20
2018-12-23T14:34:02.514Z,9.10
2018-12-23T14:36:54.687Z,9.10
2018-12-23T14:39:46.875Z,9.00
2018-12-23T14:42:39.071Z,9.00
2018-12-23T14:45:31.254Z,9.00
2018-12-23T14:48:23.428Z,8.90
2018-12-23T14:51:15.620Z,8.90
2018-12-23T14:54:07.801Z,8.90
2018-12-23T14:57:00.002Z,8.90
2018-12-23T14:59:52.181Z,8.90
2018-12-23T15:02:44.360Z,8.90
2018-12-23T15:05:36.800Z,8.90
2018-12-23T15:08:28.980Z,8.80
2018-12-23T15:11:21.176Z,8.80
2018-12-23T15:14:13.347Z,8.80
2018-12-23T15:17:05.544Z,8.70
2018-12-23T15:19:48.831Z,8.70
2018-12-23T15:22:41.316Z,8.70
2018-12-23T15:25:33.524Z,8.70
2018-12-23T15:28:25.689Z,8.70
2018-12-23T15:31:17.884Z,8.70
2018-12-23T15:34:10.064Z,8.60
2018-12-23T15:37:02.258Z,8.60
2018-12-23T15:39:54.456Z,8.60
2018-12-23T15:42:46.670Z,8.60
2018-12-23T15:45:38.850Z,8.60
2018-12-23T15:48:31.047Z,8.60
2018-12-23T15:51:23.238Z,8.60
2018-12-23T15:54:15.896Z,8.60
2018-12-23T15:57:08.087Z,8.60
2018-12-23T16:00:00.275Z,8.60
2018-12-23T16:02:52.483Z,8.60
2018-12-23T16:05:44.664Z,8.60
2018-12-23T16:08:36.856Z,8.60
2018-12-23T16:11:29.032Z,8.60
2018-12-23T16:14:21.233Z,8.60
2018-12-23T16:17:13.425Z,8.60
2018-12-23T16:19:58.325Z,8.60
2018-12-23T16:22:43.499Z,8.60
2018-12-23T16:25:28.688Z,8.60
2018-12-23T16:28:13.786Z,8.60
2018-12-23T16:30:58.829Z,8.70
2018-12-23T16:33:44.009Z,8.70
2018-12-23T16:36:28.612Z,8.70
2018-12-23T16:39:13.581Z,8.70
2018-12-23T16:41:58.219Z,8.70
2018-12-23T16:44:43.270Z,8.70
2018-12-23T16:47:28.372Z,8.60
2018-12-23T16:50:13.080Z,8.60
2018-12-23T16:55:45.582Z,8.60
2018-12-23T16:58:30.708Z,8.60
2018-12-23T17:01:15.860Z,8.60
2018-12-23T17:04:00.755Z,8.60
2018-12-23T17:06:45.540Z,8.60
2018-12-23T17:09:30.089Z,8.50
2018-12-23T17:12:14.840Z,8.50
2018-12-23T17:14:59.665Z,8.50
2018-12-23T17:17:44.401Z,8.50
2018-12-23T17:20:29.334Z,8.50
2018-12-23T17:23:14.170Z,8.50
2018-12-23T17:25:58.885Z,8.60
2018-12-23T17:28:43.364Z,8.60
2018-12-23T17:31:16.400Z,8.60
2018-12-23T17:34:08.584Z,8.60
2018-12-23T17:37:00.789Z,8.60
2018-12-23T17:39:52.964Z,8.60
2018-12-23T17:42:45.160Z,8.70
2018-12-23T17:45:37.343Z,8.70
2018-12-23T17:51:41.043Z,8.70
2018-12-23T17:54:33.235Z,8.70
2018-12-23T17:57:25.731Z,8.80
2018-12-23T18:00:17.952Z,8.70
2018-12-23T18:03:10.156Z,8.80
2018-12-23T18:06:02.363Z,8.80
2018-12-23T18:08:54.547Z,8.80
2018-12-23T18:11:46.716Z,8.80
2018-12-23T18:14:38.908Z,8.80
2018-12-23T18:17:31.118Z,8.80
2018-12-23T18:20:15.612Z,8.90
2018-12-23T18:23:00.148Z,8.90
2018-12-23T18:25:45.360Z,8.90
2018-12-23T18:28:30.012Z,8.90
2018-12-23T18:31:15.116Z,8.90
2018-12-23T18:34:00.022Z,8.90
2018-12-23T18:36:44.786Z,8.90
2018-12-23T18:39:29.459Z,8.90
2018-12-23T18:42:14.283Z,8.90
2018-12-23T18:44:59.204Z,8.90
2018-12-23T18:47:43.980Z,8.90
2018-12-23T18:50:29.157Z,8.90
2018-12-23T18:53:14.697Z,9.00
2018-12-23T18:55:59.941Z,9.00
2018-12-23T18:58:45.080Z,9.00
2018-12-23T19:01:29.582Z,9.00
2018-12-23T19:04:14.300Z,9.10
2018-12-23T19:06:59.197Z,9.10
2018-12-23T19:09:44.212Z,9.10
2018-12-23T19:12:28.749Z,9.20
2018-12-23T19:15:13.205Z,9.20
2018-12-23T19:17:58.225Z,9.30
2018-12-23T19:20:43.350Z,9.30
2018-12-23T19:23:28.052Z,9.40
2018-12-23T19:26:12.605Z,9.40
2018-12-23T19:28:57.341Z,9.60
2018-12-23T19:31:41.889Z,9.60
2018-12-23T19:34:33.848Z,9.70
2018-12-23T19:40:01.443Z,9.90
2018-12-23T19:42:46.328Z,9.90
2018-12-23T19:45:31.103Z,10.00
2018-12-23T19:48:16.254Z,10.10
2018-12-23T19:51:01.020Z,10.20
2018-12-23T19:53:46.061Z,10.30
2018-12-23T19:56:57.728Z,10.30
2018-12-23T20:00:09.133Z,10.30
2018-12-23T20:03:20.492Z,10.40
2018-12-23T20:06:31.876Z,10.50
2018-12-23T20:09:43.255Z,10.50
2018-12-23T20:12:54.616Z,10.60
2018-12-23T20:16:05.987Z,10.70
2018-12-23T20:19:17.351Z,10.80
2018-12-23T20:22:02.064Z,10.90
2018-12-23T20:24:46.585Z,10.90
2018-12-23T20:27:31.507Z,10.90
2018-12-23T20:30:16.977Z,10.90
2018-12-23T20:33:01.832Z,10.90
2018-12-23T20:35:46.736Z,10.90
2018-12-23T20:38:31.616Z,10.90
2018-12-23T20:41:16.745Z,10.90
2018-12-23T20:44:01.681Z,10.90
2018-12-23T20:46:46.287Z,10.90
2018-12-23T20:52:18.442Z,10.90
2018-12-23T20:57:50.502Z,10.90
2018-12-23T21:00:35.224Z,10.90
2018-12-23T21:03:20.920Z,10.90
2018-12-23T21:06:05.418Z,10.60
2018-12-23T21:08:51.830Z,10.30
2018-12-23T21:11:37.002Z,10.10
2018-12-23T21:14:21.801Z,9.90
2018-12-23T21:17:06.630Z,9.80
2018-12-23T21:19:51.104Z,9.60
2018-12-23T21:22:35.558Z,9.50
2018-12-23T21:25:20.506Z,9.40
2018-12-23T21:28:05.479Z,9.30
2018-12-23T21:30:50.153Z,9.20
2018-12-23T21:33:35.826Z,9.10
2018-12-23T21:36:26.867Z,9.00
2018-12-23T21:39:38.250Z,8.90
2018-12-23T21:42:49.600Z,8.80
2018-12-23T21:46:00.979Z,8.80
2018-12-23T21:49:12.356Z,8.70
2018-12-23T21:52:23.782Z,8.60
2018-12-23T21:55:35.173Z,8.50
2018-12-23T21:58:42.228Z,8.40
2018-12-23T22:01:53.610Z,8.40
2018-12-23T22:05:04.988Z,8.40
2018-12-23T22:08:16.351Z,8.30
2018-12-23T22:11:33.082Z,8.20
2018-12-23T22:14:21.632Z,8.30
2018-12-23T22:17:13.845Z,8.20
2018-12-23T22:19:57.152Z,8.10
2018-12-23T22:22:49.344Z,7.90
2018-12-23T22:25:41.535Z,7.70
2018-12-23T22:28:33.724Z,7.60
2018-12-23T22:31:25.901Z,7.50
2018-12-23T22:34:18.077Z,7.60
2018-12-23T22:37:10.260Z,7.60
2018-12-23T22:40:02.439Z,7.50
2018-12-23T22:42:54.647Z,7.50
2018-12-23T22:45:46.844Z,7.50
2018-12-23T22:48:39.154Z,7.50
2018-12-23T22:51:31.364Z,7.40
2018-12-23T22:54:23.804Z,7.30
2018-12-23T22:57:16.028Z,7.30
2018-12-23T23:00:08.207Z,7.30
2018-12-23T23:02:41.191Z,7.20
2018-12-23T23:05:33.375Z,7.10
2018-12-23T23:08:25.556Z,7.10
2018-12-23T23:11:17.795Z,7.00
2018-12-23T23:14:10.009Z,6.90
2018-12-23T23:17:02.729Z,6.90
2018-12-23T23:19:55.375Z,6.90
2018-12-23T23:22:47.570Z,6.80
2018-12-23T23:25:39.740Z,6.80
2018-12-23T23:28:31.935Z,6.70
2018-12-23T23:31:24.111Z,6.70
2018-12-23T23:34:16.286Z,6.70
2018-12-23T23:37:08.468Z,6.60
2018-12-23T23:40:00.660Z,6.70
2018-12-23T23:42:52.828Z,6.60
2018-12-23T23:45:45.024Z,6.60
2018-12-23T23:48:37.197Z,6.60
2018-12-23T23:51:29.390Z,6.60
2018-12-23T23:54:21.829Z,6.60
2018-12-23T23:57:14.246Z,6.60
